sensor_id;sensor_type;location;lat;lon;timestamp;P1;durP1;ratioP1;P2;durP2;ratioP2
53939;SDS011;39850;43.324;21.916;2022-12-18T00:28:28;52.0;;;46.0;;
53939;SDS011;39850;43.324;21.916;2022-12-18T00:33:05;52.0;;;46.0;;
53939;SDS011;39850;43.324;21.916;2022-12-18T00:37:41;52.0;;;46.0;;
53939;SDS011;39850;43.324;21.916;2022-12-18T00:42:17;51.0;;;46.0;;
53939;SDS011;39850;43.324;21.916;2022-12-18T00:46:54;51.0;;;46.0;;
53939;SDS011;39850;43.324;21.916;2022-12-18T00:51:30;51.0;;;46.0;;
53939;SDS011;39850;43.324;21.916;2022-12-18T00:56:07;51.0;;;46.0;;
53939;SDS011;39850;43.324;21.916;2022-12-18T01:00:44;50.0;;;45.0;;
53939;SDS011;39850;43.324;21.916;2022-12-18T01:05:20;50.0;;;45.0;;
53939;SDS011;39850;43.324;21.916;2022-12-18T02:00:49;45.0;;;40.0;;
53939;SDS011;39850;43.324;21.916;2022-12-18T02:05:46;45.0;;;40.0;;
53939;SDS011;39850;43.324;21.916;2022-12-18T02:10:42;46.0;;;40.0;;
53939;SDS011;39850;43.324;21.916;2022-12-18T02:15:45;46.0;;;40.0;;
53939;SDS011;39850;43.324;21.916;2022-12-18T02:20:47;46.0;;;40.0;;
53939;SDS011;39850;43.324;21.916;2022-12-18T02:26:09;46.0;;;40.0;;
53939;SDS011;39850;43.324;21.916;2022-12-18T02:31:01;46.0;;;40.0;;
53939;SDS011;39850;43.324;21.916;2022-12-18T02:35:46;46.0;;;40.0;;
53939;SDS011;39850;43.324;21.916;2022-12-18T03:19:16;47.0;;;41.0;;
53939;SDS011;39850;43.324;21.916;2022-12-18T03:23:58;47.0;;;41.0;;
53939;SDS011;39850;43.324;21.916;2022-12-18T03:28:48;47.0;;;41.0;;
53939;SDS011;39850;43.324;21.916;2022-12-18T03:33:40;48.0;;;40.0;;
53939;SDS011;39850;43.324;21.916;2022-12-18T03:38:22;48.0;;;40.0;;
53939;SDS011;39850;43.324;21.916;2022-12-18T03:43:16;48.0;;;40.0;;
53939;SDS011;39850;43.324;21.916;2022-12-18T03:48:19;48.0;;;40.0;;
53939;SDS011;39850;43.324;21.916;2022-12-18T03:53:39;48.0;;;40.0;;
53939;SDS011;39850;43.324;21.916;2022-12-18T03:58:34;48.0;;;40.0;;
53939;SDS011;39850;43.324;21.916;2022-12-18T04:40:18;44.0;;;37.0;;
53939;SDS011;39850;43.324;21.916;2022-12-18T04:44:54;44.0;;;37.0;;
53939;SDS011;39850;43.324;21.916;2022-12-18T04:49:30;45.0;;;38.0;;
53939;SDS011;39850;43.324;21.916;2022-12-18T04:54:06;45.0;;;38.0;;
53939;SDS011;39850;43.324;21.916;2022-12-18T04:58:45;45.0;;;38.0;;
53939;SDS011;39850;43.324;21.916;2022-12-18T05:03:21;45.0;;;38.0;;
53939;SDS011;39850;43.324;21.916;2022-12-18T05:07:57;45.0;;;38.0;;
53939;SDS011;39850;43.324;21.916;2022-12-18T05:12:33;46.0;;;39.0;;
53939;SDS011;39850;43.324;21.916;2022-12-18T05:17:10;46.0;;;39.0;;
53939;SDS011;39850;43.324;21.916;2022-12-18T05:49:28;45.0;;;37.0;;
53939;SDS011;39850;43.324;21.916;2022-12-18T05:54:04;45.0;;;37.0;;
53939;SDS011;39850;43.324;21.916;2022-12-18T05:58:42;45.0;;;37.0;;
53939;SDS011;39850;43.324;21.916;2022-12-18T06:03:18;44.0;;;37.0;;
53939;SDS011;39850;43.324;21.916;2022-12-18T06:07:55;44.0;;;37.0;;
53939;SDS011;39850;43.324;21.916;2022-12-18T06:12:31;44.0;;;37.0;;
53939;SDS011;39850;43.324;21.916;2022-12-18T06:17:08;44.0;;;37.0;;
53939;SDS011;39850;43.324;21.916;2022-12-18T06:21:44;44.0;;;37.0;;
53939;SDS011;39850;43.324;21.916;2022-12-18T06:26:22;44.0;;;37.0;;
53939;SDS011;39850;43.324;21.916;2022-12-18T06:30:59;44.0;;;37.0;;
53939;SDS011;39850;43.324;21.916;2022-12-18T06:35:36;44.0;;;37.0;;
53939;SDS011;39850;43.324;21.916;2022-12-18T07:21:40;44.0;;;37.0;;
53939;SDS011;39850;43.324;21.916;2022-12-18T07:26:21;44.0;;;37.0;;
53939;SDS011;39850;43.324;21.916;2022-12-18T07:31:01;44.0;;;37.0;;
53939;SDS011;39850;43.324;21.916;2022-12-18T07:35:39;44.0;;;37.0;;
53939;SDS011;39850;43.324;21.916;2022-12-18T07:40:16;44.0;;;37.0;;
53939;SDS011;39850;43.324;21.916;2022-12-18T07:44:52;44.0;;;37.0;;
53939;SDS011;39850;43.324;21.916;2022-12-18T07:49:28;44.0;;;37.0;;
53939;SDS011;39850;43.324;21.916;2022-12-18T08:40:12;54.0;;;44.0;;
53939;SDS011;39850;43.324;21.916;2022-12-18T08:44:49;54.0;;;44.0;;
53939;SDS011;39850;43.324;21.916;2022-12-18T08:49:25;54.0;;;44.0;;
53939;SDS011;39850;43.324;21.916;2022-12-18T08:54:04;52.0;;;42.0;;
53939;SDS011;39850;43.324;21.916;2022-12-18T08:58:43;52.0;;;42.0;;
53939;SDS011;39850;43.324;21.916;2022-12-18T09:03:20;52.0;;;42.0;;
53939;SDS011;39850;43.324;21.916;2022-12-18T09:07:57;52.0;;;42.0;;
53939;SDS011;39850;43.324;21.916;2022-12-18T09:12:33;50.0;;;41.0;;
53939;SDS011;39850;43.324;21.916;2022-12-18T09:17:09;50.0;;;41.0;;
53939;SDS011;39850;43.324;21.916;2022-12-18T10:04:16;43.0;;;36.0;;
53939;SDS011;39850;43.324;21.916;2022-12-18T10:09:11;43.0;;;36.0;;
53939;SDS011;39850;43.324;21.916;2022-12-18T10:14:14;43.0;;;36.0;;
53939;SDS011;39850;43.324;21.916;2022-12-18T10:19:35;43.0;;;36.0;;
53939;SDS011;39850;43.324;21.916;2022-12-18T10:24:36;43.0;;;36.0;;
53939;SDS011;39850;43.324;21.916;2022-12-18T10:29:19;43.0;;;36.0;;
53939;SDS011;39850;43.324;21.916;2022-12-18T11:21:11;48.0;;;40.0;;
53939;SDS011;39850;43.324;21.916;2022-12-18T11:26:00;48.0;;;40.0;;
53939;SDS011;39850;43.324;21.916;2022-12-18T11:30:38;46.0;;;39.0;;
53939;SDS011;39850;43.324;21.916;2022-12-18T11:35:35;46.0;;;39.0;;
53939;SDS011;39850;43.324;21.916;2022-12-18T11:40:33;46.0;;;39.0;;
53939;SDS011;39850;43.324;21.916;2022-12-18T11:45:31;46.0;;;39.0;;
53939;SDS011;39850;43.324;21.916;2022-12-18T11:50:26;46.0;;;39.0;;
53939;SDS011;39850;43.324;21.916;2022-12-18T11:55:18;44.0;;;38.0;;
53939;SDS011;39850;43.324;21.916;2022-12-18T12:00:25;44.0;;;38.0;;
53939;SDS011;39850;43.324;21.916;2022-12-18T12:31:12;42.0;;;36.0;;
53939;SDS011;39850;43.324;21.916;2022-12-18T12:36:21;42.0;;;36.0;;
53939;SDS011;39850;43.324;21.916;2022-12-18T12:41:18;42.0;;;36.0;;
53939;SDS011;39850;43.324;21.916;2022-12-18T12:46:06;42.0;;;36.0;;
53939;SDS011;39850;43.324;21.916;2022-12-18T12:50:47;41.0;;;35.0;;
53939;SDS011;39850;43.324;21.916;2022-12-18T12:55:29;41.0;;;35.0;;
53939;SDS011;39850;43.324;21.916;2022-12-18T13:00:18;41.0;;;35.0;;
53939;SDS011;39850;43.324;21.916;2022-12-18T13:05:15;40.0;;;34.0;;
53939;SDS011;39850;43.324;21.916;2022-12-18T13:10:33;40.0;;;34.0;;
53939;SDS011;39850;43.324;21.916;2022-12-18T13:15:26;39.0;;;34.0;;
53939;SDS011;39850;43.324;21.916;2022-12-18T13:20:20;39.0;;;34.0;;
53939;SDS011;39850;43.324;21.916;2022-12-18T13:54:30;36.0;;;32.0;;
53939;SDS011;39850;43.324;21.916;2022-12-18T13:59:20;36.0;;;32.0;;
53939;SDS011;39850;43.324;21.916;2022-12-18T14:04:16;38.0;;;33.0;;
53939;SDS011;39850;43.324;21.916;2022-12-18T14:08:56;38.0;;;33.0;;
53939;SDS011;39850;43.324;21.916;2022-12-18T14:13:41;39.0;;;34.0;;
53939;SDS011;39850;43.324;21.916;2022-12-18T14:18:26;39.0;;;34.0;;
53939;SDS011;39850;43.324;21.916;2022-12-18T14:23:32;40.0;;;34.0;;
53939;SDS011;39850;43.324;21.916;2022-12-18T14:28:15;40.0;;;34.0;;
53939;SDS011;39850;43.324;21.916;2022-12-18T14:33:09;41.0;;;35.0;;
53939;SDS011;39850;43.324;21.916;2022-12-18T14:37:49;41.0;;;35.0;;
53939;SDS011;39850;43.324;21.916;2022-12-18T15:25:37;40.0;;;34.0;;
53939;SDS011;39850;43.324;21.916;2022-12-18T15:30:24;40.0;;;34.0;;
53939;SDS011;39850;43.324;21.916;2022-12-18T15:35:17;40.0;;;34.0;;
53939;SDS011;39850;43.324;21.916;2022-12-18T15:39:55;40.0;;;34.0;;
53939;SDS011;39850;43.324;21.916;2022-12-18T15:44:32;40.0;;;34.0;;
53939;SDS011;39850;43.324;21.916;2022-12-18T15:49:09;40.0;;;34.0;;
53939;SDS011;39850;43.324;21.916;2022-12-18T16:35:27;37.0;;;32.0;;
53939;SDS011;39850;43.324;21.916;2022-12-18T16:40:08;37.0;;;32.0;;
53939;SDS011;39850;43.324;21.916;2022-12-18T16:44:49;37.0;;;32.0;;
53939;SDS011;39850;43.324;21.916;2022-12-18T16:49:25;37.0;;;32.0;;
53939;SDS011;39850;43.324;21.916;2022-12-18T16:54:02;37.0;;;32.0;;
53939;SDS011;39850;43.324;21.916;2022-12-18T16:58:38;37.0;;;32.0;;
53939;SDS011;39850;43.324;21.916;2022-12-18T17:03:14;37.0;;;33.0;;
53939;SDS011;39850;43.324;21.916;2022-12-18T17:07:50;37.0;;;33.0;;
53939;SDS011;39850;43.324;21.916;2022-12-18T17:12:27;37.0;;;33.0;;
53939;SDS011;39850;43.324;21.916;2022-12-18T17:17:04;37.0;;;33.0;;
53939;SDS011;39850;43.324;21.916;2022-12-18T18:03:13;39.0;;;35.0;;
53939;SDS011;39850;43.324;21.916;2022-12-18T18:07:50;39.0;;;35.0;;
53939;SDS011;39850;43.324;21.916;2022-12-18T18:12:26;41.0;;;36.0;;
53939;SDS011;39850;43.324;21.916;2022-12-18T18:17:02;41.0;;;36.0;;
53939;SDS011;39850;43.324;21.916;2022-12-18T18:21:44;41.0;;;36.0;;
53939;SDS011;39850;43.324;21.916;2022-12-18T18:26:21;41.0;;;36.0;;
53939;SDS011;39850;43.324;21.916;2022-12-18T18:31:03;41.0;;;36.0;;
53939;SDS011;39850;43.324;21.916;2022-12-18T18:35:41;43.0;;;37.0;;
53939;SDS011;39850;43.324;21.916;2022-12-18T18:40:18;43.0;;;37.0;;
53939;SDS011;39850;43.324;21.916;2022-12-18T19:12:33;52.0;;;42.0;;
53939;SDS011;39850;43.324;21.916;2022-12-18T19:17:10;52.0;;;42.0;;
53939;SDS011;39850;43.324;21.916;2022-12-18T19:21:47;52.0;;;42.0;;
53939;SDS011;39850;43.324;21.916;2022-12-18T19:26:24;52.0;;;42.0;;
53939;SDS011;39850;43.324;21.916;2022-12-18T19:31:07;52.0;;;42.0;;
53939;SDS011;39850;43.324;21.916;2022-12-18T19:35:45;52.0;;;42.0;;
53939;SDS011;39850;43.324;21.916;2022-12-18T19:40:22;52.0;;;42.0;;
53939;SDS011;39850;43.324;21.916;2022-12-18T19:44:58;52.0;;;42.0;;
53939;SDS011;39850;43.324;21.916;2022-12-18T19:49:34;52.0;;;42.0;;
53939;SDS011;39850;43.324;21.916;2022-12-18T20:35:42;54.0;;;42.0;;
53939;SDS011;39850;43.324;21.916;2022-12-18T20:40:18;54.0;;;42.0;;
53939;SDS011;39850;43.324;21.916;2022-12-18T20:44:54;52.0;;;41.0;;
53939;SDS011;39850;43.324;21.916;2022-12-18T20:49:30;52.0;;;41.0;;
53939;SDS011;39850;43.324;21.916;2022-12-18T20:54:07;52.0;;;41.0;;
53939;SDS011;39850;43.324;21.916;2022-12-18T20:58:44;52.0;;;41.0;;
53939;SDS011;39850;43.324;21.916;2022-12-18T21:03:20;50.0;;;40.0;;
53939;SDS011;39850;43.324;21.916;2022-12-18T21:07:56;50.0;;;40.0;;
53939;SDS011;39850;43.324;21.916;2022-12-18T22:03:16;71.0;;;53.0;;
53939;SDS011;39850;43.324;21.916;2022-12-18T22:07:53;71.0;;;53.0;;
53939;SDS011;39850;43.324;21.916;2022-12-18T22:12:29;71.0;;;53.0;;
53939;SDS011;39850;43.324;21.916;2022-12-18T22:17:05;71.0;;;53.0;;
53939;SDS011;39850;43.324;21.916;2022-12-18T22:21:46;71.0;;;53.0;;
53939;SDS011;39850;43.324;21.916;2022-12-18T22:26:28;71.0;;;53.0;;
53939;SDS011;39850;43.324;21.916;2022-12-18T22:31:07;71.0;;;53.0;;
53939;SDS011;39850;43.324;21.916;2022-12-18T23:17:16;53.0;;;41.0;;
53939;SDS011;39850;43.324;21.916;2022-12-18T23:21:52;53.0;;;41.0;;
53939;SDS011;39850;43.324;21.916;2022-12-18T23:26:28;52.0;;;40.0;;
53939;SDS011;39850;43.324;21.916;2022-12-18T23:31:12;52.0;;;40.0;;
53939;SDS011;39850;43.324;21.916;2022-12-18T23:35:50;52.0;;;40.0;;
53939;SDS011;39850;43.324;21.916;2022-12-18T23:40:28;52.0;;;40.0;;
53939;SDS011;39850;43.324;21.916;2022-12-18T23:45:08;50.0;;;39.0;;
53939;SDS011;39850;43.324;21.916;2022-12-18T23:49:44;50.0;;;39.0;;
